sensor_id;sensor_type;location;lat;lon;timestamp;pressure;altitude;pressure_sealevel;temperature;humidity
73936;BME280;62287;50.858;0.252;2023-03-03T00:00:25;102410.77;;;11.12;39.32
73936;BME280;62287;50.858;0.252;2023-03-03T00:00:56;102406.93;;;10.17;39.50
73936;BME280;62287;50.858;0.252;2023-03-03T00:01:27;102405.95;;;10.28;39.38
73936;BME280;62287;50.858;0.252;2023-03-03T00:01:59;102407.56;;;10.39;39.27
73936;BME280;62287;50.858;0.252;2023-03-03T00:02:30;102402.63;;;10.39;39.22
73936;BME280;62287;50.858;0.252;2023-03-03T00:03:05;102405.04;;;10.58;39.16
73936;BME280;62287;50.858;0.252;2023-03-03T00:03:37;102407.50;;;10.41;39.18
73936;BME280;62287;50.858;0.252;2023-03-03T00:04:08;102405.82;;;10.29;39.24
73936;BME280;62287;50.858;0.252;2023-03-03T00:04:39;102404.44;;;10.27;39.23
73936;BME280;62287;50.858;0.252;2023-03-03T00:05:11;102403.88;;;10.39;39.26
73936;BME280;62287;50.858;0.252;2023-03-03T00:05:42;102405.32;;;10.49;39.24
73936;BME280;62287;50.858;0.252;2023-03-03T00:06:13;102404.44;;;10.49;39.12
73936;BME280;62287;50.858;0.252;2023-03-03T00:06:45;102405.78;;;10.06;39.16
73936;BME280;62287;50.858;0.252;2023-03-03T00:07:16;102404.84;;;10.48;39.07
73936;BME280;62287;50.858;0.252;2023-03-03T00:07:47;102403.86;;;10.59;39.07
73936;BME280;62287;50.858;0.252;2023-03-03T00:08:18;102405.29;;;10.34;39.10
73936;BME280;62287;50.858;0.252;2023-03-03T00:08:51;102406.86;;;10.28;39.16
73936;BME280;62287;50.858;0.252;2023-03-03T00:09:22;102406.40;;;10.24;39.21
73936;BME280;62287;50.858;0.252;2023-03-03T00:09:53;102401.79;;;10.36;39.16
73936;BME280;62287;50.858;0.252;2023-03-03T00:10:24;102405.17;;;10.39;39.09
73936;BME280;62287;50.858;0.252;2023-03-03T00:10:56;102404.99;;;10.31;39.11
73936;BME280;62287;50.858;0.252;2023-03-03T00:11:27;102404.37;;;10.31;39.14
73936;BME280;62287;50.858;0.252;2023-03-03T00:12:20;102404.00;;;10.64;38.93
73936;BME280;62287;50.858;0.252;2023-03-03T00:12:53;102402.48;;;10.38;38.99
73936;BME280;62287;50.858;0.252;2023-03-03T00:13:25;102404.52;;;10.37;39.01
73936;BME280;62287;50.858;0.252;2023-03-03T00:13:57;102404.50;;;10.47;38.97
73936;BME280;62287;50.858;0.252;2023-03-03T00:14:30;102407.04;;;10.51;38.89
73936;BME280;62287;50.858;0.252;2023-03-03T00:15:13;102407.79;;;10.31;39.01
73936;BME280;62287;50.858;0.252;2023-03-03T00:15:45;102405.37;;;10.42;38.93
73936;BME280;62287;50.858;0.252;2023-03-03T00:16:21;102407.86;;;10.39;39.05
73936;BME280;62287;50.858;0.252;2023-03-03T00:16:54;102407.95;;;10.45;38.90
73936;BME280;62287;50.858;0.252;2023-03-03T00:17:28;102407.80;;;10.43;38.93
73936;BME280;62287;50.858;0.252;2023-03-03T00:18:00;102407.68;;;10.48;38.82
73936;BME280;62287;50.858;0.252;2023-03-03T00:18:35;102409.26;;;10.61;38.91
73936;BME280;62287;50.858;0.252;2023-03-03T00:19:14;102410.19;;;10.50;38.86
73936;BME280;62287;50.858;0.252;2023-03-03T00:19:47;102409.11;;;10.61;38.78
73936;BME280;62287;50.858;0.252;2023-03-03T00:20:31;102406.41;;;10.62;38.73
73936;BME280;62287;50.858;0.252;2023-03-03T00:21:14;102406.18;;;10.59;38.78
73936;BME280;62287;50.858;0.252;2023-03-03T00:21:48;102409.55;;;10.87;38.66
73936;BME280;62287;50.858;0.252;2023-03-03T00:22:26;102406.79;;;10.53;38.80
73936;BME280;62287;50.858;0.252;2023-03-03T00:23:13;102408.81;;;10.46;38.83
73936;BME280;62287;50.858;0.252;2023-03-03T00:23:46;102410.79;;;10.81;38.61
73936;BME280;62287;50.858;0.252;2023-03-03T00:24:20;102408.09;;;10.75;38.59
73936;BME280;62287;50.858;0.252;2023-03-03T00:24:51;102409.29;;;10.65;38.75
73936;BME280;62287;50.858;0.252;2023-03-03T00:25:28;102413.86;;;10.69;38.70
73936;BME280;62287;50.858;0.252;2023-03-03T00:25:59;102412.77;;;10.45;38.65
73936;BME280;62287;50.858;0.252;2023-03-03T00:26:34;102412.25;;;10.68;38.66
73936;BME280;62287;50.858;0.252;2023-03-03T00:27:17;102416.04;;;11.35;38.62
73936;BME280;62287;50.858;0.252;2023-03-03T00:27:52;102413.65;;;11.32;38.62
73936;BME280;62287;50.858;0.252;2023-03-03T00:28:26;102414.07;;;10.80;38.65
73936;BME280;62287;50.858;0.252;2023-03-03T00:28:57;102413.01;;;10.80;38.74
73936;BME280;62287;50.858;0.252;2023-03-03T00:29:31;102412.02;;;10.74;38.75
73936;BME280;62287;50.858;0.252;2023-03-03T00:30:16;102415.46;;;10.46;38.85
73936;BME280;62287;50.858;0.252;2023-03-03T00:30:50;102412.11;;;10.63;38.83
73936;BME280;62287;50.858;0.252;2023-03-03T00:31:25;102411.28;;;10.88;38.75
73936;BME280;62287;50.858;0.252;2023-03-03T00:32:15;102412.35;;;10.70;38.73
73936;BME280;62287;50.858;0.252;2023-03-03T00:32:47;102413.76;;;10.42;38.93
73936;BME280;62287;50.858;0.252;2023-03-03T00:33:25;102413.63;;;10.98;39.00
73936;BME280;62287;50.858;0.252;2023-03-03T00:34:00;102408.67;;;10.45;39.03
73936;BME280;62287;50.858;0.252;2023-03-03T00:34:41;102409.22;;;10.41;38.91
73936;BME280;62287;50.858;0.252;2023-03-03T00:35:23;102407.76;;;10.79;38.92
73936;BME280;62287;50.858;0.252;2023-03-03T00:35:55;102410.49;;;10.51;38.95
73936;BME280;62287;50.858;0.252;2023-03-03T00:36:30;102409.80;;;10.39;39.05
73936;BME280;62287;50.858;0.252;2023-03-03T00:37:10;102406.81;;;10.53;38.88
73936;BME280;62287;50.858;0.252;2023-03-03T00:37:54;102406.85;;;11.29;38.87
73936;BME280;62287;50.858;0.252;2023-03-03T00:38:26;102408.43;;;10.62;38.82
73936;BME280;62287;50.858;0.252;2023-03-03T00:39:16;102412.66;;;10.89;38.88
73936;BME280;62287;50.858;0.252;2023-03-03T00:39:47;102409.29;;;10.96;38.78
73936;BME280;62287;50.858;0.252;2023-03-03T00:40:21;102408.43;;;10.59;38.85
73936;BME280;62287;50.858;0.252;2023-03-03T00:40:53;102408.69;;;11.42;38.86
73936;BME280;62287;50.858;0.252;2023-03-03T00:41:26;102409.67;;;11.07;38.79
73936;BME280;62287;50.858;0.252;2023-03-03T00:41:58;102409.56;;;10.57;38.81
73936;BME280;62287;50.858;0.252;2023-03-03T00:42:31;102408.39;;;10.68;38.75
73936;BME280;62287;50.858;0.252;2023-03-03T00:43:16;102411.16;;;11.37;38.77
73936;BME280;62287;50.858;0.252;2023-03-03T00:43:47;102410.54;;;10.72;38.70
73936;BME280;62287;50.858;0.252;2023-03-03T00:44:34;102412.01;;;11.00;38.78
73936;BME280;62287;50.858;0.252;2023-03-03T00:45:29;102411.25;;;10.61;38.98
73936;BME280;62287;50.858;0.252;2023-03-03T00:46:03;102410.57;;;10.69;38.91
73936;BME280;62287;50.858;0.252;2023-03-03T00:46:40;102411.17;;;10.90;38.98
73936;BME280;62287;50.858;0.252;2023-03-03T00:47:25;102408.86;;;10.60;38.94
73936;BME280;62287;50.858;0.252;2023-03-03T00:47:57;102411.32;;;11.03;38.75
73936;BME280;62287;50.858;0.252;2023-03-03T00:48:38;102410.51;;;11.20;38.65
73936;BME280;62287;50.858;0.252;2023-03-03T00:49:18;102412.44;;;10.52;38.92
73936;BME280;62287;50.858;0.252;2023-03-03T00:49:54;102412.17;;;10.61;38.86
73936;BME280;62287;50.858;0.252;2023-03-03T00:50:30;102414.65;;;10.61;38.88
73936;BME280;62287;50.858;0.252;2023-03-03T00:51:19;102412.99;;;10.73;38.77
73936;BME280;62287;50.858;0.252;2023-03-03T00:51:58;102414.86;;;10.85;38.64
73936;BME280;62287;50.858;0.252;2023-03-03T00:52:29;102415.46;;;10.95;38.56
73936;BME280;62287;50.858;0.252;2023-03-03T00:53:05;102416.80;;;10.90;38.54
73936;BME280;62287;50.858;0.252;2023-03-03T00:53:37;102414.84;;;10.75;38.72
73936;BME280;62287;50.858;0.252;2023-03-03T00:54:08;102415.03;;;10.84;38.63
73936;BME280;62287;50.858;0.252;2023-03-03T00:54:39;102415.61;;;10.89;38.65
73936;BME280;62287;50.858;0.252;2023-03-03T00:55:10;102418.77;;;10.42;38.57
73936;BME280;62287;50.858;0.252;2023-03-03T00:55:42;102417.06;;;10.91;38.52
73936;BME280;62287;50.858;0.252;2023-03-03T00:56:13;102418.34;;;11.77;38.39
73936;BME280;62287;50.858;0.252;2023-03-03T00:56:45;102417.24;;;10.81;38.55
73936;BME280;62287;50.858;0.252;2023-03-03T00:57:16;102418.12;;;10.66;38.39
73936;BME280;62287;50.858;0.252;2023-03-03T00:57:47;102417.00;;;10.86;38.47
73936;BME280;62287;50.858;0.252;2023-03-03T00:58:19;102417.30;;;10.82;38.48
73936;BME280;62287;50.858;0.252;2023-03-03T00:58:50;102417.52;;;11.21;38.78
73936;BME280;62287;50.858;0.252;2023-03-03T00:59:21;102417.93;;;10.73;38.81
73936;BME280;62287;50.858;0.252;2023-03-03T00:59:52;102420.31;;;10.85;38.65
73936;BME280;62287;50.858;0.252;2023-03-03T01:00:23;102415.05;;;11.67;38.60
73936;BME280;62287;50.858;0.252;2023-03-03T01:00:55;102417.26;;;11.44;38.64
73936;BME280;62287;50.858;0.252;2023-03-03T01:01:26;102417.43;;;11.40;38.49
73936;BME280;62287;50.858;0.252;2023-03-03T01:01:56;102421.04;;;10.95;38.59
73936;BME280;62287;50.858;0.252;2023-03-03T01:02:27;102419.54;;;11.12;38.69
73936;BME280;62287;50.858;0.252;2023-03-03T01:03:02;102421.74;;;10.86;38.86
73936;BME280;62287;50.858;0.252;2023-03-03T01:03:34;102422.49;;;10.73;38.79
73936;BME280;62287;50.858;0.252;2023-03-03T01:04:05;102420.39;;;10.75;38.82
73936;BME280;62287;50.858;0.252;2023-03-03T01:04:36;102424.93;;;11.00;38.72
73936;BME280;62287;50.858;0.252;2023-03-03T01:05:09;102424.16;;;11.06;38.68
73936;BME280;62287;50.858;0.252;2023-03-03T01:05:42;102424.07;;;10.64;38.98
73936;BME280;62287;50.858;0.252;2023-03-03T01:06:13;102428.15;;;10.86;39.09
73936;BME280;62287;50.858;0.252;2023-03-03T01:06:44;102423.71;;;10.94;38.94
73936;BME280;62287;50.858;0.252;2023-03-03T01:07:15;102422.98;;;10.77;38.78
73936;BME280;62287;50.858;0.252;2023-03-03T01:07:46;102427.43;;;11.25;38.72
73936;BME280;62287;50.858;0.252;2023-03-03T01:08:18;102424.87;;;11.08;38.77
73936;BME280;62287;50.858;0.252;2023-03-03T01:08:49;102426.54;;;11.08;38.80
73936;BME280;62287;50.858;0.252;2023-03-03T01:09:20;102427.76;;;10.73;38.81
73936;BME280;62287;50.858;0.252;2023-03-03T01:09:51;102425.45;;;10.75;38.80
73936;BME280;62287;50.858;0.252;2023-03-03T01:10:22;102426.57;;;10.68;39.02
73936;BME280;62287;50.858;0.252;2023-03-03T01:10:56;102426.57;;;10.99;39.00
73936;BME280;62287;50.858;0.252;2023-03-03T01:11:28;102428.35;;;10.65;38.75
73936;BME280;62287;50.858;0.252;2023-03-03T01:11:59;102430.09;;;10.49;38.84
73936;BME280;62287;50.858;0.252;2023-03-03T01:12:30;102429.26;;;11.37;38.77
73936;BME280;62287;50.858;0.252;2023-03-03T01:13:05;102428.49;;;10.87;38.75
73936;BME280;62287;50.858;0.252;2023-03-03T01:13:39;102430.79;;;10.86;38.77
73936;BME280;62287;50.858;0.252;2023-03-03T01:14:11;102432.54;;;10.51;38.79
73936;BME280;62287;50.858;0.252;2023-03-03T01:14:42;102431.57;;;10.79;38.77
73936;BME280;62287;50.858;0.252;2023-03-03T01:15:14;102433.75;;;11.27;38.70
73936;BME280;62287;50.858;0.252;2023-03-03T01:15:45;102432.69;;;10.96;38.68
73936;BME280;62287;50.858;0.252;2023-03-03T01:16:17;102433.67;;;11.33;38.57
73936;BME280;62287;50.858;0.252;2023-03-03T01:16:48;102432.11;;;11.05;38.48
73936;BME280;62287;50.858;0.252;2023-03-03T01:17:19;102434.98;;;10.69;38.60
73936;BME280;62287;50.858;0.252;2023-03-03T01:17:50;102437.96;;;11.15;38.66
73936;BME280;62287;50.858;0.252;2023-03-03T01:18:21;102439.47;;;11.06;38.85
73936;BME280;62287;50.858;0.252;2023-03-03T01:18:52;102438.62;;;10.90;38.75
73936;BME280;62287;50.858;0.252;2023-03-03T01:19:24;102437.06;;;11.19;38.71
73936;BME280;62287;50.858;0.252;2023-03-03T01:19:55;102442.16;;;10.47;38.74
73936;BME280;62287;50.858;0.252;2023-03-03T01:20:26;102439.84;;;10.20;38.88
73936;BME280;62287;50.858;0.252;2023-03-03T01:20:57;102437.39;;;10.94;38.88
73936;BME280;62287;50.858;0.252;2023-03-03T01:21:28;102437.18;;;10.61;38.87
73936;BME280;62287;50.858;0.252;2023-03-03T01:21:59;102432.45;;;10.40;38.75
73936;BME280;62287;50.858;0.252;2023-03-03T01:22:30;102432.29;;;11.07;38.71
73936;BME280;62287;50.858;0.252;2023-03-03T01:23:03;102432.35;;;11.20;38.77
73936;BME280;62287;50.858;0.252;2023-03-03T01:23:34;102433.04;;;11.14;38.73
73936;BME280;62287;50.858;0.252;2023-03-03T01:24:05;102437.74;;;10.98;38.84
73936;BME280;62287;50.858;0.252;2023-03-03T01:24:36;102430.70;;;10.50;38.82
73936;BME280;62287;50.858;0.252;2023-03-03T01:25:08;102437.35;;;11.00;38.75
73936;BME280;62287;50.858;0.252;2023-03-03T01:25:39;102434.63;;;10.60;38.62
73936;BME280;62287;50.858;0.252;2023-03-03T01:26:10;102434.63;;;11.31;38.69
73936;BME280;62287;50.858;0.252;2023-03-03T01:26:41;102434.05;;;10.62;38.61
73936;BME280;62287;50.858;0.252;2023-03-03T01:27:12;102435.42;;;11.42;38.54
73936;BME280;62287;50.858;0.252;2023-03-03T01:27:48;102434.82;;;11.02;38.55
73936;BME280;62287;50.858;0.252;2023-03-03T01:28:19;102435.85;;;10.65;38.77
73936;BME280;62287;50.858;0.252;2023-03-03T01:28:50;102434.51;;;11.16;38.73
73936;BME280;62287;50.858;0.252;2023-03-03T01:29:22;102436.02;;;10.76;38.75
73936;BME280;62287;50.858;0.252;2023-03-03T01:29:53;102435.19;;;11.37;38.73
73936;BME280;62287;50.858;0.252;2023-03-03T01:30:25;102437.59;;;10.97;38.72
73936;BME280;62287;50.858;0.252;2023-03-03T01:31:00;102435.69;;;10.66;38.74
73936;BME280;62287;50.858;0.252;2023-03-03T01:31:31;102434.57;;;10.93;38.79
73936;BME280;62287;50.858;0.252;2023-03-03T01:32:02;102437.76;;;11.14;38.58
73936;BME280;62287;50.858;0.252;2023-03-03T01:32:33;102434.50;;;10.72;38.60
73936;BME280;62287;50.858;0.252;2023-03-03T01:33:04;102437.12;;;11.18;38.58
73936;BME280;62287;50.858;0.252;2023-03-03T01:33:36;102440.07;;;10.74;38.70
73936;BME280;62287;50.858;0.252;2023-03-03T01:34:07;102439.93;;;10.67;38.65
73936;BME280;62287;50.858;0.252;2023-03-03T01:34:38;102437.08;;;10.73;38.61
73936;BME280;62287;50.858;0.252;2023-03-03T01:35:09;102437.26;;;10.94;38.47
73936;BME280;62287;50.858;0.252;2023-03-03T01:35:43;102436.37;;;10.79;38.52
73936;BME280;62287;50.858;0.252;2023-03-03T01:36:14;102437.47;;;11.03;38.52
73936;BME280;62287;50.858;0.252;2023-03-03T01:36:45;102438.63;;;10.83;38.46
73936;BME280;62287;50.858;0.252;2023-03-03T01:37:16;102436.79;;;10.79;38.45
73936;BME280;62287;50.858;0.252;2023-03-03T01:37:47;102438.39;;;10.84;38.42
73936;BME280;62287;50.858;0.252;2023-03-03T01:38:18;102439.78;;;10.90;38.46
73936;BME280;62287;50.858;0.252;2023-03-03T01:38:49;102439.16;;;11.20;38.49
73936;BME280;62287;50.858;0.252;2023-03-03T01:39:20;102438.19;;;10.79;38.48
73936;BME280;62287;50.858;0.252;2023-03-03T01:39:52;102436.98;;;10.91;38.42
73936;BME280;62287;50.858;0.252;2023-03-03T01:40:25;102438.56;;;10.84;38.51
73936;BME280;62287;50.858;0.252;2023-03-03T01:40:58;102438.64;;;10.97;38.46
73936;BME280;62287;50.858;0.252;2023-03-03T01:41:31;102438.91;;;10.76;38.46
73936;BME280;62287;50.858;0.252;2023-03-03T01:42:03;102438.11;;;10.92;38.35
73936;BME280;62287;50.858;0.252;2023-03-03T01:42:34;102436.05;;;10.86;38.36
73936;BME280;62287;50.858;0.252;2023-03-03T01:43:06;102438.34;;;10.95;38.36
73936;BME280;62287;50.858;0.252;2023-03-03T01:43:48;102437.99;;;10.83;38.42
73936;BME280;62287;50.858;0.252;2023-03-03T01:44:19;102437.06;;;10.72;38.43
73936;BME280;62287;50.858;0.252;2023-03-03T01:45:11;102435.98;;;10.86;38.37
73936;BME280;62287;50.858;0.252;2023-03-03T01:46:39;102436.68;;;10.71;38.51
73936;BME280;62287;50.858;0.252;2023-03-03T01:47:15;102438.39;;;10.80;38.47
73936;BME280;62287;50.858;0.252;2023-03-03T01:47:51;102436.50;;;10.66;38.59
73936;BME280;62287;50.858;0.252;2023-03-03T01:48:28;102435.74;;;10.70;38.54
73936;BME280;62287;50.858;0.252;2023-03-03T01:49:06;102435.70;;;10.71;38.49
73936;BME280;62287;50.858;0.252;2023-03-03T01:49:42;102434.42;;;10.56;38.61
73936;BME280;62287;50.858;0.252;2023-03-03T01:50:25;102434.83;;;10.64;38.53
73936;BME280;62287;50.858;0.252;2023-03-03T01:51:00;102435.14;;;10.84;38.28
73936;BME280;62287;50.858;0.252;2023-03-03T01:51:35;102432.61;;;11.07;38.39
73936;BME280;62287;50.858;0.252;2023-03-03T01:52:12;102434.59;;;10.59;38.50
73936;BME280;62287;50.858;0.252;2023-03-03T01:52:47;102430.95;;;10.70;38.47
73936;BME280;62287;50.858;0.252;2023-03-03T01:53:21;102433.64;;;10.58;38.50
73936;BME280;62287;50.858;0.252;2023-03-03T01:53:56;102434.36;;;10.67;38.75
73936;BME280;62287;50.858;0.252;2023-03-03T01:54:30;102430.73;;;10.82;38.66
73936;BME280;62287;50.858;0.252;2023-03-03T01:55:07;102429.83;;;10.90;38.61
73936;BME280;62287;50.858;0.252;2023-03-03T01:55:43;102432.14;;;10.55;38.61
73936;BME280;62287;50.858;0.252;2023-03-03T01:56:15;102431.18;;;10.90;38.38
73936;BME280;62287;50.858;0.252;2023-03-03T01:56:48;102432.40;;;11.10;38.43
73936;BME280;62287;50.858;0.252;2023-03-03T01:57:25;102432.50;;;10.78;38.40
73936;BME280;62287;50.858;0.252;2023-03-03T01:58:07;102435.77;;;10.73;38.40
73936;BME280;62287;50.858;0.252;2023-03-03T01:58:42;102439.57;;;10.32;38.66
73936;BME280;62287;50.858;0.252;2023-03-03T01:59:17;102434.72;;;10.66;38.50
73936;BME280;62287;50.858;0.252;2023-03-03T01:59:50;102433.89;;;10.59;38.59
73936;BME280;62287;50.858;0.252;2023-03-03T02:00:23;102433.30;;;10.67;38.48
73936;BME280;62287;50.858;0.252;2023-03-03T02:00:59;102433.21;;;10.69;38.49
73936;BME280;62287;50.858;0.252;2023-03-03T02:01:32;102435.44;;;10.52;38.60
73936;BME280;62287;50.858;0.252;2023-03-03T02:02:04;102437.23;;;10.46;38.61
73936;BME280;62287;50.858;0.252;2023-03-03T02:02:36;102435.74;;;10.51;38.54
73936;BME280;62287;50.858;0.252;2023-03-03T02:03:08;102434.71;;;10.62;38.56
73936;BME280;62287;50.858;0.252;2023-03-03T02:03:39;102432.76;;;10.50;38.52
73936;BME280;62287;50.858;0.252;2023-03-03T02:04:11;102433.25;;;10.51;38.56
73936;BME280;62287;50.858;0.252;2023-03-03T02:04:42;102431.54;;;10.42;38.60
73936;BME280;62287;50.858;0.252;2023-03-03T02:05:14;102435.83;;;10.26;38.81
73936;BME280;62287;50.858;0.252;2023-03-03T02:05:48;102428.38;;;11.18;38.69
73936;BME280;62287;50.858;0.252;2023-03-03T02:06:24;102430.37;;;10.65;38.50
73936;BME280;62287;50.858;0.252;2023-03-03T02:06:59;102429.00;;;10.69;38.39
73936;BME280;62287;50.858;0.252;2023-03-03T02:07:31;102431.71;;;10.69;38.38
73936;BME280;62287;50.858;0.252;2023-03-03T02:08:03;102430.58;;;10.55;38.52
73936;BME280;62287;50.858;0.252;2023-03-03T02:08:41;102430.61;;;10.46;38.53
73936;BME280;62287;50.858;0.252;2023-03-03T02:09:18;102429.93;;;10.48;38.56
73936;BME280;62287;50.858;0.252;2023-03-03T02:09:55;102429.35;;;10.45;38.58
73936;BME280;62287;50.858;0.252;2023-03-03T02:10:28;102428.00;;;10.48;38.56
73936;BME280;62287;50.858;0.252;2023-03-03T02:11:05;102428.71;;;10.54;38.53
73936;BME280;62287;50.858;0.252;2023-03-03T02:11:40;102431.72;;;10.47;38.57
73936;BME280;62287;50.858;0.252;2023-03-03T02:12:16;102431.92;;;10.42;38.58
73936;BME280;62287;50.858;0.252;2023-03-03T02:12:50;102430.79;;;10.41;38.59
73936;BME280;62287;50.858;0.252;2023-03-03T02:13:21;102432.13;;;10.41;38.57
73936;BME280;62287;50.858;0.252;2023-03-03T02:13:52;102432.22;;;10.36;38.63
73936;BME280;62287;50.858;0.252;2023-03-03T02:14:24;102430.59;;;10.68;38.42
73936;BME280;62287;50.858;0.252;2023-03-03T02:14:56;102432.32;;;10.49;38.55
73936;BME280;62287;50.858;0.252;2023-03-03T02:15:29;102428.61;;;10.65;38.43
73936;BME280;62287;50.858;0.252;2023-03-03T02:16:02;102432.78;;;10.56;38.57
73936;BME280;62287;50.858;0.252;2023-03-03T02:16:33;102432.89;;;10.48;38.54
73936;BME280;62287;50.858;0.252;2023-03-03T02:17:04;102431.17;;;10.63;38.38
73936;BME280;62287;50.858;0.252;2023-03-03T02:17:36;102430.02;;;10.50;38.51
73936;BME280;62287;50.858;0.252;2023-03-03T02:18:11;102432.87;;;10.91;38.42
73936;BME280;62287;50.858;0.252;2023-03-03T02:18:43;102432.34;;;10.89;38.45
73936;BME280;62287;50.858;0.252;2023-03-03T02:19:21;102431.00;;;10.43;38.43
73936;BME280;62287;50.858;0.252;2023-03-03T02:19:59;102430.59;;;10.65;38.36
73936;BME280;62287;50.858;0.252;2023-03-03T02:20:44;102430.93;;;10.52;38.31
73936;BME280;62287;50.858;0.252;2023-03-03T02:21:19;102430.77;;;10.59;38.32
73936;BME280;62287;50.858;0.252;2023-03-03T02:21:51;102428.95;;;10.46;38.45
73936;BME280;62287;50.858;0.252;2023-03-03T02:22:28;102430.34;;;10.53;38.42
73936;BME280;62287;50.858;0.252;2023-03-03T02:23:07;102431.97;;;10.52;38.41
73936;BME280;62287;50.858;0.252;2023-03-03T02:23:49;102434.37;;;10.31;38.62
73936;BME280;62287;50.858;0.252;2023-03-03T02:24:24;102431.91;;;10.43;38.48
73936;BME280;62287;50.858;0.252;2023-03-03T02:25:00;102432.35;;;10.59;38.42
73936;BME280;62287;50.858;0.252;2023-03-03T02:25:36;102435.37;;;10.31;38.57
73936;BME280;62287;50.858;0.252;2023-03-03T02:26:13;102434.37;;;10.91;38.43
73936;BME280;62287;50.858;0.252;2023-03-03T02:26:45;102429.39;;;10.61;38.32
73936;BME280;62287;50.858;0.252;2023-03-03T02:27:17;102433.46;;;10.43;38.48
73936;BME280;62287;50.858;0.252;2023-03-03T02:27:48;102437.46;;;10.34;38.60
73936;BME280;62287;50.858;0.252;2023-03-03T02:28:19;102438.05;;;10.32;38.62
73936;BME280;62287;50.858;0.252;2023-03-03T02:28:51;102436.86;;;10.28;38.64
73936;BME280;62287;50.858;0.252;2023-03-03T02:29:22;102434.03;;;10.45;38.53
73936;BME280;62287;50.858;0.252;2023-03-03T02:29:53;102437.54;;;10.41;38.51
73936;BME280;62287;50.858;0.252;2023-03-03T02:30:24;102437.14;;;10.47;38.42
73936;BME280;62287;50.858;0.252;2023-03-03T02:30:56;102436.44;;;10.68;38.40
73936;BME280;62287;50.858;0.252;2023-03-03T02:31:29;102436.56;;;10.53;38.41
73936;BME280;62287;50.858;0.252;2023-03-03T02:32:06;102435.40;;;10.49;38.48
73936;BME280;62287;50.858;0.252;2023-03-03T02:32:37;102436.03;;;10.41;38.50
73936;BME280;62287;50.858;0.252;2023-03-03T02:33:08;102437.55;;;10.45;38.50
73936;BME280;62287;50.858;0.252;2023-03-03T02:33:42;102435.34;;;10.39;38.53
73936;BME280;62287;50.858;0.252;2023-03-03T02:34:14;102432.00;;;10.49;38.51
73936;BME280;62287;50.858;0.252;2023-03-03T02:34:47;102437.73;;;10.59;38.60
73936;BME280;62287;50.858;0.252;2023-03-03T02:35:28;102435.04;;;10.29;38.61
73936;BME280;62287;50.858;0.252;2023-03-03T02:36:00;102434.88;;;10.20;38.71
73936;BME280;62287;50.858;0.252;2023-03-03T02:36:34;102435.49;;;10.30;38.62
73936;BME280;62287;50.858;0.252;2023-03-03T02:37:06;102433.74;;;10.15;38.72
73936;BME280;62287;50.858;0.252;2023-03-03T02:37:37;102431.20;;;10.35;38.56
73936;BME280;62287;50.858;0.252;2023-03-03T02:38:18;102431.85;;;10.46;38.60
73936;BME280;62287;50.858;0.252;2023-03-03T02:38:55;102432.65;;;10.43;38.49
73936;BME280;62287;50.858;0.252;2023-03-03T02:39:29;102431.73;;;10.47;38.48
73936;BME280;62287;50.858;0.252;2023-03-03T02:40:00;102433.00;;;10.37;38.46
73936;BME280;62287;50.858;0.252;2023-03-03T02:40:35;102430.54;;;10.32;38.50
73936;BME280;62287;50.858;0.252;2023-03-03T02:41:11;102428.67;;;10.85;38.45
73936;BME280;62287;50.858;0.252;2023-03-03T02:41:49;102432.51;;;10.24;38.61
73936;BME280;62287;50.858;0.252;2023-03-03T02:42:26;102429.67;;;10.40;38.57
73936;BME280;62287;50.858;0.252;2023-03-03T02:43:02;102428.88;;;10.58;38.38
73936;BME280;62287;50.858;0.252;2023-03-03T02:43:40;102429.90;;;11.02;38.42
73936;BME280;62287;50.858;0.252;2023-03-03T02:44:15;102433.87;;;10.36;38.52
73936;BME280;62287;50.858;0.252;2023-03-03T02:44:47;102433.31;;;10.42;38.51
73936;BME280;62287;50.858;0.252;2023-03-03T02:45:18;102438.36;;;10.26;38.59
73936;BME280;62287;50.858;0.252;2023-03-03T02:45:49;102436.31;;;10.33;38.55
73936;BME280;62287;50.858;0.252;2023-03-03T02:46:20;102439.17;;;10.26;38.62
73936;BME280;62287;50.858;0.252;2023-03-03T02:46:53;102439.58;;;10.38;38.51
73936;BME280;62287;50.858;0.252;2023-03-03T02:47:24;102437.30;;;10.33;38.57
73936;BME280;62287;50.858;0.252;2023-03-03T02:47:55;102438.27;;;10.49;38.51
73936;BME280;62287;50.858;0.252;2023-03-03T02:48:26;102440.07;;;10.42;38.43
73936;BME280;62287;50.858;0.252;2023-03-03T02:48:59;102440.93;;;10.49;38.61
73936;BME280;62287;50.858;0.252;2023-03-03T02:49:32;102441.31;;;10.23;38.61
73936;BME280;62287;50.858;0.252;2023-03-03T02:50:06;102440.15;;;10.25;38.62
73936;BME280;62287;50.858;0.252;2023-03-03T02:50:37;102437.87;;;10.24;38.63
73936;BME280;62287;50.858;0.252;2023-03-03T02:51:08;102437.52;;;10.79;38.50
73936;BME280;62287;50.858;0.252;2023-03-03T02:51:40;102440.14;;;10.26;38.59
73936;BME280;62287;50.858;0.252;2023-03-03T02:52:12;102441.32;;;10.23;38.57
73936;BME280;62287;50.858;0.252;2023-03-03T02:52:43;102439.94;;;10.31;38.62
73936;BME280;62287;50.858;0.252;2023-03-03T02:53:14;102439.31;;;10.30;38.57
73936;BME280;62287;50.858;0.252;2023-03-03T02:53:46;102435.11;;;10.55;38.45
73936;BME280;62287;50.858;0.252;2023-03-03T02:54:19;102438.76;;;10.01;38.47
73936;BME280;62287;50.858;0.252;2023-03-03T02:54:50;102433.79;;;10.59;38.46
73936;BME280;62287;50.858;0.252;2023-03-03T02:55:22;102434.32;;;10.87;38.39
73936;BME280;62287;50.858;0.252;2023-03-03T02:55:53;102435.98;;;10.76;38.41
73936;BME280;62287;50.858;0.252;2023-03-03T02:56:24;102433.24;;;10.79;38.49
73936;BME280;62287;50.858;0.252;2023-03-03T02:56:55;102437.15;;;10.27;38.58
73936;BME280;62287;50.858;0.252;2023-03-03T02:57:27;102437.63;;;10.32;38.56
73936;BME280;62287;50.858;0.252;2023-03-03T02:58:04;102436.87;;;10.28;38.59